»·PEaware :: N28AC KBFL-KSBD

N28AC :: KBFL-KSBD

FLIGHT INFORMATION

Flight Status: Arrived
Operator: Privately registered:
United States
More flights under this callsign
Pilot: Martin M. (34529)
Aircraft: BEECH AIRCRAFT BONANZA
(BE36)
More flights by this aircraft type
Origin: KBFL Meadows
United States
Destination: KSBD San Bernardino Intl
United States
More flights between these airports :: More routes between these airports
Route: MEADO4 LHS VNY V186 PDZ
File this flight plan on PilotEdge
Remarks:
Altitude:
(Current/Filed)
11,000ft
Speed:
(Current/Filed)
170kts
Departed: 20-Jul-21 01:18 PM
Arrived: 20-Jul-21 02:22 PM
Distance/Time
Traveled:
121nm/1:04
Distance/Time
To Go:
Arrived

Flight Plot

Page will automatically refresh every two minutes.

Flight plan parsing failed; only flown route is shown


Map Options




Map Legend


Flown Route
Filed Route
Departure Airport
Arrival Airport
Navaid (VOR, NDB)
Fix

Horizontal Profiles

Position Reports

Time Latitude Longitude Heading Altitude Ground
Speed
20-Jul-21 13:04 35.435644 -119.052906 180 490ft 0kts
20-Jul-21 13:05 35.435644 -119.052906 180 490ft 0kts
20-Jul-21 13:06 35.435644 -119.052906 180 490ft 0kts
20-Jul-21 13:07 35.435644 -119.052906 180 490ft 0kts
20-Jul-21 13:08 35.435644 -119.052906 180 490ft 0kts
20-Jul-21 13:09 35.435645 -119.052906 180 490ft 0kts
20-Jul-21 13:10 35.435645 -119.052906 180 490ft 0kts
20-Jul-21 13:11 35.435645 -119.052906 180 490ft 0kts
20-Jul-21 13:12 35.435645 -119.052906 180 490ft 0kts
20-Jul-21 13:13 35.435645 -119.052906 180 490ft 0kts
20-Jul-21 13:14 35.434624 -119.054476 228 487ft 9kts
20-Jul-21 13:15 35.431703 -119.051356 135 482ft 21kts
20-Jul-21 13:16 35.427208 -119.045932 134 476ft 21kts
20-Jul-21 13:17 35.425725 -119.044793 225 471ft 8kts
20-Jul-21 13:18 35.433277 -119.055373 315 630ft 98kts
20-Jul-21 13:19 35.454004 -119.080127 314 1641ft 104kts
20-Jul-21 13:20 35.474785 -119.105242 314 2605ft 105kts
20-Jul-21 13:21 35.495926 -119.130680 314 3621ft 106kts
20-Jul-21 13:22 35.517337 -119.156493 314 4627ft 108kts
20-Jul-21 13:23 35.538927 -119.182849 314 5629ft 111kts
20-Jul-21 13:23 35.529781 -119.196152 150 6365ft 119kts
20-Jul-21 13:24 35.501462 -119.174381 151 7291ft 120kts
20-Jul-21 13:25 35.472709 -119.153427 149 8175ft 120kts
20-Jul-21 13:27 35.439310 -119.128839 150 9122ft 119kts
20-Jul-21 13:27 35.415506 -119.111256 150 9750ft 120kts
20-Jul-21 13:28 35.386874 -119.090157 150 10456ft 120kts
20-Jul-21 13:29 35.357635 -119.068641 150 10962ft 133kts
20-Jul-21 13:30 35.322946 -119.043134 150 11001ft 153kts
20-Jul-21 13:31 35.285638 -119.015691 150 10997ft 159kts
20-Jul-21 13:32 35.247338 -118.987588 151 10934ft 163kts
20-Jul-21 13:33 35.208500 -118.959120 150 10901ft 161kts
20-Jul-21 13:34 35.170263 -118.931104 150 10903ft 160kts
20-Jul-21 13:35 35.132061 -118.903156 150 10907ft 160kts
20-Jul-21 13:36 35.093850 -118.875235 150 10909ft 159kts
20-Jul-21 13:37 35.055906 -118.847541 150 10911ft 159kts
20-Jul-21 13:38 35.017720 -118.819708 151 10911ft 159kts
20-Jul-21 13:39 34.979557 -118.791902 151 10911ft 160kts
20-Jul-21 13:40 34.941315 -118.764093 150 10903ft 159kts
20-Jul-21 13:41 34.903002 -118.736248 151 10918ft 161kts
20-Jul-21 13:42 34.864316 -118.708175 151 10908ft 161kts
20-Jul-21 13:43 34.825703 -118.680174 151 10906ft 162kts
20-Jul-21 13:44 34.787129 -118.652238 151 10902ft 161kts
20-Jul-21 13:45 34.748636 -118.624365 151 10896ft 160kts
20-Jul-21 13:46 34.710599 -118.596869 151 10898ft 159kts
20-Jul-21 13:47 34.670120 -118.575393 166 10922ft 161kts
20-Jul-21 13:48 34.625894 -118.566460 172 10904ft 161kts
20-Jul-21 13:49 34.581768 -118.558099 173 10908ft 160kts
20-Jul-21 13:50 34.537806 -118.549900 172 10885ft 163kts
20-Jul-21 13:51 34.489911 -118.540994 172 10106ft 181kts
20-Jul-21 13:52 34.440401 -118.531809 172 9328ft 186kts
20-Jul-21 13:53 34.388825 -118.522240 171 8527ft 190kts
20-Jul-21 13:54 34.336687 -118.512591 172 7725ft 191kts
20-Jul-21 13:55 34.285133 -118.503070 172 7103ft 184kts
20-Jul-21 13:56 34.236673 -118.494112 171 6996ft 170kts
20-Jul-21 13:57 34.210382 -118.450249 110 6799ft 178kts
20-Jul-21 13:58 34.192351 -118.392373 112 6010ft 188kts
20-Jul-21 13:59 34.173688 -118.332745 112 5216ft 193kts
20-Jul-21 14:00 34.155432 -118.274654 112 5010ft 178kts
20-Jul-21 14:01 34.138070 -118.219455 112 4996ft 174kts
20-Jul-21 14:02 34.121236 -118.166077 112 5004ft 173kts
20-Jul-21 14:03 34.103991 -118.111486 112 4998ft 173kts
20-Jul-21 14:04 34.086799 -118.057179 112 4999ft 173kts
20-Jul-21 14:05 34.070188 -118.004785 112 4999ft 175kts
20-Jul-21 14:06 34.052868 -117.950249 112 5000ft 176kts
20-Jul-21 14:07 34.035364 -117.895253 112 5006ft 176kts
20-Jul-21 14:08 34.017915 -117.840538 112 5050ft 174kts
20-Jul-21 14:09 34.000549 -117.786157 112 5060ft 176kts
20-Jul-21 14:10 33.991916 -117.730106 76 5033ft 178kts
20-Jul-21 14:11 34.006078 -117.673431 73 5001ft 178kts
20-Jul-21 14:12 34.018316 -117.613516 77 4372ft 188kts
20-Jul-21 14:13 34.029894 -117.553270 77 4029ft 178kts
20-Jul-21 14:14 34.040847 -117.496454 77 4010ft 172kts
20-Jul-21 14:15 34.051797 -117.439847 77 3647ft 177kts
20-Jul-21 14:16 34.063051 -117.381881 77 3048ft 177kts
20-Jul-21 14:17 34.073485 -117.328515 77 2433ft 123kts
20-Jul-21 14:18 34.080493 -117.293555 77 1705ft 97kts
20-Jul-21 14:19 34.087247 -117.262903 70 1369ft 93kts
20-Jul-21 14:20 34.095578 -117.234285 73 1132ft 64kts
20-Jul-21 14:21 34.099630 -117.226143 41 1146ft 13kts
20-Jul-21 14:22 34.101621 -117.224895 62 1153ft 3kts

Navigation Log

Ident Type
Flight plan parsing failed, navigation log unavailable